Time;durP1;ratioP1;P1;durP2;ratioP2;P2;SDS_P1;SDS_P2;PMS_P1;PMS_P2;Temp;Humidity;BMP_temperature;BMP_pressure;BME280_temperature;BME280_humidity;BME280_pressure;Samples;Min_cycle;Max_cycle;Signal;HPM_P1;HPM_P2
2020/09/01 00:00:37;;;;;;;1.80;1.70;;;;;;;21.64;67.12;100517.03;;;;-55
2020/09/01 00:03:27;;;;;;;1.70;1.60;;;;;;;21.63;67.14;100518.34;;;;-54
2020/09/01 00:06:27;;;;;;;1.77;1.64;;;;;;;21.63;67.21;100518.02;;;;-54
2020/09/01 00:09:27;;;;;;;1.79;1.69;;;;;;;21.62;67.12;100513.55;;;;-55
2020/09/01 00:12:27;;;;;;;1.79;1.69;;;;;;;21.62;67.23;100512.05;;;;-54
2020/09/01 00:15:27;;;;;;;1.70;1.60;;;;;;;21.61;67.18;100511.73;;;;-55
2020/09/01 00:18:27;;;;;;;1.72;1.62;;;;;;;21.61;67.23;100514.84;;;;-54
2020/09/01 00:21:27;;;;;;;1.85;1.71;;;;;;;21.61;67.20;100514.03;;;;-54
2020/09/01 00:24:27;;;;;;;1.71;1.61;;;;;;;21.60;67.19;100512.30;;;;-54
2020/09/01 00:27:27;;;;;;;1.70;1.60;;;;;;;21.60;67.21;100512.46;;;;-55
2020/09/01 00:30:27;;;;;;;1.89;1.71;;;;;;;21.59;67.18;100510.67;;;;-55
2020/09/01 00:33:27;;;;;;;1.81;1.71;;;;;;;21.60;67.20;100508.80;;;;-54
2020/09/01 00:36:27;;;;;;;1.73;1.63;;;;;;;21.59;67.16;100506.27;;;;-54
2020/09/01 00:39:27;;;;;;;1.82;1.60;;;;;;;21.58;67.11;100503.28;;;;-55
2020/09/01 00:42:27;;;;;;;1.70;1.60;;;;;;;21.58;67.12;100504.50;;;;-55
2020/09/01 00:45:27;;;;;;;1.70;1.60;;;;;;;21.58;67.17;100506.05;;;;-54
2020/09/01 00:48:27;;;;;;;1.81;1.71;;;;;;;21.57;67.19;100505.78;;;;-54
2020/09/01 00:51:26;;;;;;;1.70;1.60;;;;;;;21.57;67.19;100507.91;;;;-54
2020/09/01 00:54:27;;;;;;;1.64;1.54;;;;;;;21.57;67.18;100513.12;;;;-55
2020/09/01 01:03:27;;;;;;;1.73;1.63;;;;;;;21.56;67.24;100508.39;;;;-54
2020/09/01 01:06:27;;;;;;;1.73;1.63;;;;;;;21.56;67.18;100507.25;;;;-55
2020/09/01 01:09:27;;;;;;;1.73;1.63;;;;;;;21.55;67.25;100511.17;;;;-54
2020/09/01 01:12:42;;;;;;;1.60;1.50;;;;;;;21.55;67.21;100510.45;;;;-54
2020/09/01 01:15:27;;;;;;;1.64;1.54;;;;;;;21.55;67.24;100514.36;;;;-54
2020/09/01 01:18:26;;;;;;;1.70;1.60;;;;;;;21.55;67.16;100510.04;;;;-54
2020/09/01 01:21:26;;;;;;;1.70;1.60;;;;;;;21.55;67.28;100509.31;;;;-54
2020/09/01 01:24:27;;;;;;;1.74;1.64;;;;;;;21.55;67.24;100507.43;;;;-54
2020/09/01 01:27:27;;;;;;;1.90;1.77;;;;;;;21.54;67.21;100501.63;;;;-54
2020/09/01 01:30:27;;;;;;;1.70;1.60;;;;;;;21.53;67.23;100493.81;;;;-54
2020/09/01 01:33:26;;;;;;;1.81;1.71;;;;;;;21.53;67.28;100495.04;;;;-54
2020/09/01 01:36:27;;;;;;;1.97;1.77;;;;;;;21.52;67.23;100495.86;;;;-55
2020/09/01 01:39:27;;;;;;;1.83;1.73;;;;;;;21.53;67.16;100495.52;;;;-54
2020/09/01 01:42:26;;;;;;;1.80;1.63;;;;;;;21.52;67.28;100493.98;;;;-54
2020/09/01 01:45:27;;;;;;;1.81;1.70;;;;;;;21.53;67.19;100497.23;;;;-55
2020/09/01 01:48:27;;;;;;;1.79;1.69;;;;;;;21.53;67.17;100502.20;;;;-55
2020/09/01 01:51:27;;;;;;;1.80;1.70;;;;;;;21.53;67.27;100498.06;;;;-54
2020/09/01 01:54:27;;;;;;;1.69;1.59;;;;;;;21.52;67.25;100501.31;;;;-54
2020/09/01 01:57:27;;;;;;;1.61;1.50;;;;;;;21.53;67.17;100498.88;;;;-54
2020/09/01 02:00:40;;;;;;;1.80;1.69;;;;;;;21.52;67.25;100497.25;;;;-54
2020/09/01 02:03:27;;;;;;;1.75;1.65;;;;;;;21.52;67.24;100495.95;;;;-55
2020/09/01 02:06:26;;;;;;;1.63;1.53;;;;;;;21.51;67.27;100492.42;;;;-55
2020/09/01 02:10:30;;;;;;;1.69;1.59;;;;;;;21.51;67.27;100492.27;;;;-55
2020/09/01 02:13:27;;;;;;;1.71;1.61;;;;;;;21.51;67.18;100491.13;;;;-54
2020/09/01 02:16:26;;;;;;;1.60;1.50;;;;;;;21.51;67.18;100486.31;;;;-54
2020/09/01 02:19:26;;;;;;;1.75;1.64;;;;;;;21.51;67.22;100484.92;;;;-54
2020/09/01 02:22:27;;;;;;;1.60;1.50;;;;;;;21.51;67.21;100482.64;;;;-54
2020/09/01 02:25:27;;;;;;;1.69;1.59;;;;;;;21.50;67.20;100481.44;;;;-55
2020/09/01 02:28:27;;;;;;;2.05;1.60;;;;;;;21.50;67.20;100479.23;;;;-54
2020/09/01 02:31:27;;;;;;;1.82;1.69;;;;;;;21.50;67.15;100478.91;;;;-55
2020/09/01 02:34:27;;;;;;;1.70;1.60;;;;;;;21.49;67.21;100480.84;;;;-55
2020/09/01 02:37:26;;;;;;;1.69;1.59;;;;;;;21.49;67.24;100478.08;;;;-54
2020/09/01 02:40:27;;;;;;;1.61;1.51;;;;;;;21.49;67.23;100481.42;;;;-54
2020/09/01 02:43:27;;;;;;;1.69;1.59;;;;;;;21.48;67.17;100482.58;;;;-55
2020/09/01 02:46:27;;;;;;;1.69;1.59;;;;;;;21.48;67.25;100485.84;;;;-55
2020/09/01 02:49:26;;;;;;;1.61;1.51;;;;;;;21.49;67.20;100484.61;;;;-54
2020/09/01 02:52:26;;;;;;;1.70;1.60;;;;;;;21.49;67.17;100481.51;;;;-55
2020/09/01 02:55:27;;;;;;;1.70;1.60;;;;;;;21.48;67.18;100476.71;;;;-54
2020/09/01 02:58:27;;;;;;;1.83;1.67;;;;;;;21.48;67.25;100474.50;;;;-54
2020/09/01 03:01:27;;;;;;;1.70;1.60;;;;;;;21.48;67.16;100474.31;;;;-54
2020/09/01 03:04:27;;;;;;;1.81;1.71;;;;;;;21.47;67.26;100473.92;;;;-55
2020/09/01 03:07:27;;;;;;;1.60;1.50;;;;;;;21.47;67.22;100473.91;;;;-54
2020/09/01 03:13:27;;;;;;;1.68;1.58;;;;;;;21.46;67.18;100467.25;;;;-54
2020/09/01 03:16:26;;;;;;;1.75;1.65;;;;;;;21.45;67.23;100471.47;;;;-54
2020/09/01 03:19:27;;;;;;;1.72;1.62;;;;;;;21.46;67.19;100470.59;;;;-54
2020/09/01 03:22:27;;;;;;;1.65;1.55;;;;;;;21.46;67.16;100467.73;;;;-55
2020/09/01 03:25:27;;;;;;;1.63;1.53;;;;;;;21.45;67.18;100464.14;;;;-54
2020/09/01 03:28:26;;;;;;;1.50;1.40;;;;;;;21.45;67.26;100462.02;;;;-55
2020/09/01 03:31:27;;;;;;;1.82;1.72;;;;;;;21.46;67.18;100458.02;;;;-55
2020/09/01 03:34:27;;;;;;;1.70;1.60;;;;;;;21.46;67.22;100458.99;;;;-56
2020/09/01 03:37:27;;;;;;;1.57;1.47;;;;;;;21.45;67.19;100455.00;;;;-54
2020/09/01 03:40:26;;;;;;;1.70;1.60;;;;;;;21.45;67.16;100452.64;;;;-54
2020/09/01 03:43:26;;;;;;;1.77;1.67;;;;;;;21.45;67.19;100451.67;;;;-54
2020/09/01 03:46:27;;;;;;;1.70;1.60;;;;;;;21.45;67.25;100454.77;;;;-54
2020/09/01 03:49:27;;;;;;;1.62;1.52;;;;;;;21.44;67.21;100455.77;;;;-54
2020/09/01 03:52:27;;;;;;;1.69;1.59;;;;;;;21.44;67.26;100462.86;;;;-55
2020/09/01 03:55:27;;;;;;;1.66;1.52;;;;;;;21.44;67.23;100461.30;;;;-55
2020/09/01 03:58:26;;;;;;;1.85;1.60;;;;;;;21.44;67.24;100459.02;;;;-54
2020/09/01 04:01:26;;;;;;;1.65;1.55;;;;;;;21.43;67.27;100459.98;;;;-55
2020/09/01 04:04:26;;;;;;;2.06;1.60;;;;;;;21.43;67.19;100456.48;;;;-54
2020/09/01 04:07:27;;;;;;;1.69;1.59;;;;;;;21.43;67.21;100462.68;;;;-55
2020/09/01 04:10:27;;;;;;;1.70;1.60;;;;;;;21.42;67.25;100461.88;;;;-54
2020/09/01 04:13:27;;;;;;;1.71;1.61;;;;;;;21.44;67.21;100468.89;;;;-55
2020/09/01 04:16:27;;;;;;;1.63;1.53;;;;;;;21.42;67.25;100471.63;;;;-53
2020/09/01 04:19:27;;;;;;;1.61;1.51;;;;;;;21.43;67.15;100476.20;;;;-54
2020/09/01 04:22:27;;;;;;;1.67;1.57;;;;;;;21.43;67.15;100475.56;;;;-54
2020/09/01 04:25:27;;;;;;;1.65;1.55;;;;;;;21.43;67.23;100476.63;;;;-53
2020/09/01 04:28:27;;;;;;;1.66;1.56;;;;;;;21.42;67.22;100475.24;;;;-54
2020/09/01 04:31:27;;;;;;;1.60;1.50;;;;;;;21.42;67.20;100476.47;;;;-54
2020/09/01 04:34:27;;;;;;;1.63;1.50;;;;;;;21.43;67.15;100477.28;;;;-53
2020/09/01 04:37:27;;;;;;;1.61;1.51;;;;;;;21.42;67.13;100480.71;;;;-53
2020/09/01 04:40:27;;;;;;;1.76;1.60;;;;;;;21.41;67.19;100479.92;;;;-53
2020/09/01 04:43:26;;;;;;;1.86;1.50;;;;;;;21.41;67.29;100480.25;;;;-54
2020/09/01 04:46:27;;;;;;;1.61;1.51;;;;;;;21.42;67.28;100486.72;;;;-54
2020/09/01 04:49:27;;;;;;;1.66;1.56;;;;;;;21.41;67.28;100486.38;;;;-57
2020/09/01 04:52:26;;;;;;;1.50;1.40;;;;;;;21.40;67.21;100484.59;;;;-58
2020/09/01 04:55:26;;;;;;;1.60;1.50;;;;;;;21.39;67.21;100488.03;;;;-57
2020/09/01 04:58:27;;;;;;;1.59;1.49;;;;;;;21.40;67.23;100486.88;;;;-58
2020/09/01 05:01:27;;;;;;;1.60;1.50;;;;;;;21.40;67.21;100487.78;;;;-58
2020/09/01 05:04:26;;;;;;;1.60;1.50;;;;;;;21.40;67.22;100481.42;;;;-58
2020/09/01 05:07:26;;;;;;;1.62;1.52;;;;;;;21.40;67.22;100481.50;;;;-58
2020/09/01 05:10:27;;;;;;;1.66;1.56;;;;;;;21.39;67.22;100482.62;;;;-58
2020/09/01 05:13:27;;;;;;;1.60;1.50;;;;;;;21.39;67.22;100484.17;;;;-58
2020/09/01 05:16:27;;;;;;;1.63;1.53;;;;;;;21.38;67.23;100489.16;;;;-57
2020/09/01 05:19:27;;;;;;;1.60;1.50;;;;;;;21.38;67.20;100491.11;;;;-58
2020/09/01 05:22:27;;;;;;;1.59;1.49;;;;;;;21.38;67.28;100497.97;;;;-57
2020/09/01 05:25:27;;;;;;;1.66;1.56;;;;;;;21.38;67.27;100496.50;;;;-58
2020/09/01 05:28:27;;;;;;;1.59;1.49;;;;;;;21.38;67.25;100497.48;;;;-57
2020/09/01 05:31:27;;;;;;;1.60;1.50;;;;;;;21.38;67.28;100501.06;;;;-58
2020/09/01 05:34:26;;;;;;;1.73;1.63;;;;;;;21.37;67.21;100503.69;;;;-57
2020/09/01 05:37:26;;;;;;;1.77;1.50;;;;;;;21.38;67.23;100507.75;;;;-58
2020/09/01 05:40:27;;;;;;;1.54;1.44;;;;;;;21.38;67.23;100504.97;;;;-58
2020/09/01 05:43:26;;;;;;;1.60;1.50;;;;;;;21.38;67.25;100506.11;;;;-57
2020/09/01 05:46:26;;;;;;;1.60;1.50;;;;;;;21.38;67.13;100505.88;;;;-58
2020/09/01 05:49:26;;;;;;;1.60;1.50;;;;;;;21.38;67.13;100504.08;;;;-58
2020/09/01 05:52:27;;;;;;;8.07;6.09;;;;;;;21.28;66.95;100502.45;;;;-59
2020/09/01 05:55:27;;;;;;;8.71;6.90;;;;;;;21.17;67.41;100498.06;;;;-51
2020/09/01 05:58:27;;;;;;;9.27;6.89;;;;;;;21.06;67.83;100506.05;;;;-54
2020/09/01 06:01:27;;;;;;;8.50;7.48;;;;;;;20.96;68.26;100514.52;;;;-50
2020/09/01 06:04:27;;;;;;;8.70;7.46;;;;;;;20.85;68.44;100523.84;;;;-50
2020/09/01 06:07:27;;;;;;;8.48;7.15;;;;;;;20.74;68.86;100529.63;;;;-53
2020/09/01 06:10:26;;;;;;;8.67;7.53;;;;;;;20.72;68.78;100529.53;;;;-54
2020/09/01 06:13:26;;;;;;;9.21;7.01;;;;;;;20.67;69.02;100531.57;;;;-53
2020/09/01 06:16:27;;;;;;;9.41;5.96;;;;;;;20.74;68.78;100534.75;;;;-53
2020/09/01 06:19:26;;;;;;;6.99;5.31;;;;;;;20.81;68.57;100536.47;;;;-53
2020/09/01 06:22:27;;;;;;;7.33;5.15;;;;;;;20.85;68.46;100533.70;;;;-53
2020/09/01 06:25:26;;;;;;;6.23;4.63;;;;;;;20.89;68.32;100532.66;;;;-52
2020/09/01 06:28:27;;;;;;;7.08;4.52;;;;;;;20.93;68.29;100531.53;;;;-53
2020/09/01 06:31:26;;;;;;;5.23;4.27;;;;;;;20.95;68.20;100528.10;;;;-53
2020/09/01 06:34:26;;;;;;;5.21;4.20;;;;;;;20.98;68.17;100526.01;;;;-57
2020/09/01 06:37:27;;;;;;;5.03;4.09;;;;;;;21.00;68.11;100524.95;;;;-57
2020/09/01 06:40:27;;;;;;;5.00;3.89;;;;;;;21.02;68.01;100525.09;;;;-57
2020/09/01 06:43:27;;;;;;;4.63;3.98;;;;;;;21.03;67.97;100519.73;;;;-57
2020/09/01 06:46:26;;;;;;;4.33;3.93;;;;;;;21.05;67.93;100523.08;;;;-57
2020/09/01 06:49:27;;;;;;;4.05;3.67;;;;;;;21.06;67.87;100524.04;;;;-57
2020/09/01 06:52:26;;;;;;;3.71;3.41;;;;;;;21.06;67.91;100522.34;;;;-57
2020/09/01 06:55:27;;;;;;;3.55;3.21;;;;;;;21.07;67.86;100516.95;;;;-57
2020/09/01 06:58:26;;;;;;;3.83;3.47;;;;;;;21.08;67.82;100514.09;;;;-53
2020/09/01 07:01:27;;;;;;;3.87;3.46;;;;;;;21.09;67.79;100512.65;;;;-53
2020/09/01 07:04:26;;;;;;;3.99;3.24;;;;;;;21.09;67.84;100514.69;;;;-57
2020/09/01 07:07:27;;;;;;;3.69;3.39;;;;;;;21.09;67.81;100513.05;;;;-57
2020/09/01 07:10:27;;;;;;;5.05;3.22;;;;;;;21.10;67.73;100511.81;;;;-57
2020/09/01 07:13:27;;;;;;;3.96;3.15;;;;;;;21.11;67.77;100507.59;;;;-57
2020/09/01 07:16:26;;;;;;;3.79;3.20;;;;;;;21.10;67.74;100504.16;;;;-57
2020/09/01 07:19:26;;;;;;;3.39;3.09;;;;;;;21.10;67.80;100501.14;;;;-57
2020/09/01 07:22:26;;;;;;;3.73;3.00;;;;;;;21.11;67.76;100501.08;;;;-57
2020/09/01 07:25:27;;;;;;;3.99;3.18;;;;;;;21.11;67.75;100500.50;;;;-57
2020/09/01 07:28:27;;;;;;;3.60;3.30;;;;;;;21.11;67.73;100498.95;;;;-57
2020/09/01 07:31:27;;;;;;;3.56;3.25;;;;;;;21.11;67.75;100499.44;;;;-57
2020/09/01 07:34:27;;;;;;;3.49;3.19;;;;;;;21.12;67.68;100496.17;;;;-53
2020/09/01 07:37:27;;;;;;;3.43;3.16;;;;;;;21.12;67.71;100491.37;;;;-53
2020/09/01 07:40:26;;;;;;;3.42;3.12;;;;;;;21.12;67.76;100493.00;;;;-54
2020/09/01 07:43:27;;;;;;;4.39;3.04;;;;;;;21.11;67.65;100491.13;;;;-57
2020/09/01 07:46:27;;;;;;;3.05;2.85;;;;;;;21.12;67.71;100493.41;;;;-57
2020/09/01 07:49:27;;;;;;;3.32;3.02;;;;;;;21.12;67.67;100494.95;;;;-57
2020/09/01 07:52:27;;;;;;;3.11;2.85;;;;;;;21.13;67.69;100493.34;;;;-54
2020/09/01 07:55:26;;;;;;;3.41;3.01;;;;;;;21.14;67.67;100495.61;;;;-55
2020/09/01 07:58:27;;;;;;;3.20;2.87;;;;;;;21.15;67.69;100494.40;;;;-51
2020/09/01 08:01:27;;;;;;;5.46;3.07;;;;;;;21.17;68.05;100492.84;;;;-51
2020/09/01 08:04:26;;;;;;;4.14;3.24;;;;;;;21.19;68.02;100494.15;;;;-54
2020/09/01 08:07:27;;;;;;;7.89;2.80;;;;;;;21.20;68.12;100495.52;;;;-57
2020/09/01 08:10:27;;;;;;;3.43;2.90;;;;;;;21.23;68.02;100498.69;;;;-58
2020/09/01 08:13:27;;;;;;;4.10;2.75;;;;;;;21.24;68.07;100500.42;;;;-54
2020/09/01 08:16:27;;;;;;;3.23;2.89;;;;;;;21.25;68.13;100499.83;;;;-53
2020/09/01 08:19:27;;;;;;;3.81;2.90;;;;;;;21.26;68.14;100497.65;;;;-50
2020/09/01 08:22:26;;;;;;;9.31;2.78;;;;;;;21.28;68.29;100499.34;;;;-51
2020/09/01 08:25:27;;;;;;;7.42;2.89;;;;;;;21.30;68.24;100499.35;;;;-58
2020/09/01 08:28:26;;;;;;;3.40;2.80;;;;;;;21.33;68.33;100499.19;;;;-47
2020/09/01 08:31:27;;;;;;;3.31;2.79;;;;;;;21.33;68.28;100491.78;;;;-56
2020/09/01 08:34:26;;;;;;;5.19;2.81;;;;;;;21.34;68.44;100492.84;;;;-49
2020/09/01 08:37:27;;;;;;;3.75;2.77;;;;;;;21.36;68.24;100492.67;;;;-51
2020/09/01 08:40:26;;;;;;;5.11;2.75;;;;;;;21.38;68.28;100500.98;;;;-55
2020/09/01 08:43:26;;;;;;;8.71;3.17;;;;;;;21.40;68.33;100504.73;;;;-50
2020/09/01 08:46:27;;;;;;;10.42;3.17;;;;;;;21.43;68.12;100506.70;;;;-51
2020/09/01 08:49:27;;;;;;;12.43;3.11;;;;;;;21.44;68.25;100506.63;;;;-50
2020/09/01 08:52:26;;;;;;;11.79;3.06;;;;;;;21.46;68.32;100507.27;;;;-49
2020/09/01 08:55:27;;;;;;;6.85;2.80;;;;;;;21.47;68.20;100502.78;;;;-47
2020/09/01 08:58:27;;;;;;;9.23;2.94;;;;;;;21.48;68.26;100501.25;;;;-47
2020/09/01 09:01:27;;;;;;;5.74;2.77;;;;;;;21.49;68.19;100502.94;;;;-51
2020/09/01 09:04:26;;;;;;;6.33;2.94;;;;;;;21.50;68.04;100497.25;;;;-48
2020/09/01 09:07:26;;;;;;;6.07;3.05;;;;;;;21.51;68.08;100496.75;;;;-47
2020/09/01 09:10:27;;;;;;;6.31;2.79;;;;;;;21.52;68.07;100496.41;;;;-51
2020/09/01 09:13:27;;;;;;;4.31;2.65;;;;;;;21.53;68.09;100496.18;;;;-50
2020/09/01 09:16:26;;;;;;;4.44;2.54;;;;;;;21.54;68.04;100498.86;;;;-49
2020/09/01 09:19:26;;;;;;;4.24;2.76;;;;;;;21.54;68.01;100495.02;;;;-49
2020/09/01 09:22:26;;;;;;;5.49;2.81;;;;;;;21.54;68.01;100496.02;;;;-48
2020/09/01 09:25:26;;;;;;;6.45;2.80;;;;;;;21.54;67.96;100496.92;;;;-51
2020/09/01 09:28:27;;;;;;;4.69;2.90;;;;;;;21.56;67.90;100493.64;;;;-46
2020/09/01 09:31:26;;;;;;;3.45;2.63;;;;;;;21.57;67.86;100493.31;;;;-47
2020/09/01 09:34:26;;;;;;;8.29;2.99;;;;;;;21.58;67.87;100487.02;;;;-47
2020/09/01 09:37:26;;;;;;;5.43;2.77;;;;;;;21.60;67.87;100485.80;;;;-47
2020/09/01 09:40:26;;;;;;;3.51;2.89;;;;;;;21.61;67.78;100482.79;;;;-50
2020/09/01 09:43:26;;;;;;;2.99;2.69;;;;;;;21.61;67.85;100482.80;;;;-49
2020/09/01 09:46:27;;;;;;;3.90;2.64;;;;;;;21.62;67.79;100481.48;;;;-49
2020/09/01 09:49:26;;;;;;;3.94;2.53;;;;;;;21.60;67.88;100479.30;;;;-53
2020/09/01 09:52:26;;;;;;;4.25;2.65;;;;;;;21.61;67.82;100482.47;;;;-48
2020/09/01 09:55:27;;;;;;;3.15;2.36;;;;;;;21.61;67.78;100481.89;;;;-51
2020/09/01 09:58:27;;;;;;;4.05;2.58;;;;;;;21.62;67.74;100482.13;;;;-43
2020/09/01 10:01:26;;;;;;;5.24;2.42;;;;;;;21.64;67.75;100483.20;;;;-50
2020/09/01 10:04:26;;;;;;;2.99;2.47;;;;;;;21.65;67.85;100484.59;;;;-51
2020/09/01 10:07:27;;;;;;;3.47;2.30;;;;;;;21.66;67.74;100482.11;;;;-51
2020/09/01 10:10:26;;;;;;;4.31;2.39;;;;;;;21.68;67.68;100484.06;;;;-45
2020/09/01 10:13:27;;;;;;;4.53;2.38;;;;;;;21.69;67.76;100481.15;;;;-44
2020/09/01 10:16:26;;;;;;;7.69;2.49;;;;;;;21.69;67.81;100477.23;;;;-50
2020/09/01 10:19:27;;;;;;;3.47;2.45;;;;;;;21.70;67.70;100478.03;;;;-56
2020/09/01 10:22:26;;;;;;;2.76;2.39;;;;;;;21.70;67.65;100478.67;;;;-53
2020/09/01 10:25:27;;;;;;;4.55;2.42;;;;;;;21.71;67.61;100479.35;;;;-52
2020/09/01 10:28:27;;;;;;;4.03;2.51;;;;;;;21.73;67.65;100477.80;;;;-49
2020/09/01 10:31:26;;;;;;;2.82;2.30;;;;;;;21.72;67.64;100475.73;;;;-53
2020/09/01 10:34:27;;;;;;;4.10;2.42;;;;;;;21.73;67.60;100472.33;;;;-51
2020/09/01 10:37:27;;;;;;;7.20;2.48;;;;;;;21.73;67.63;100471.51;;;;-60
2020/09/01 10:40:27;;;;;;;2.87;2.29;;;;;;;21.74;67.59;100470.03;;;;-48
2020/09/01 10:43:26;;;;;;;3.23;2.36;;;;;;;21.73;67.63;100465.21;;;;-49
2020/09/01 10:46:27;;;;;;;2.75;2.37;;;;;;;21.72;67.78;100470.03;;;;-59
2020/09/01 10:49:26;;;;;;;3.33;2.55;;;;;;;21.70;67.70;100463.35;;;;-58
2020/09/01 10:52:26;;;;;;;3.72;2.51;;;;;;;21.69;67.60;100461.66;;;;-59
2020/09/01 10:55:26;;;;;;;4.48;2.44;;;;;;;21.68;67.56;100461.97;;;;-59
2020/09/01 10:58:26;;;;;;;4.34;2.44;;;;;;;21.66;67.59;100463.19;;;;-59
2020/09/01 11:01:26;;;;;;;3.91;2.12;;;;;;;21.66;67.51;100464.42;;;;-56
2020/09/01 11:04:26;;;;;;;4.34;2.36;;;;;;;21.65;67.52;100466.55;;;;-56
2020/09/01 11:07:26;;;;;;;4.47;2.18;;;;;;;21.65;67.51;100462.16;;;;-57
2020/09/01 11:10:27;;;;;;;3.57;2.22;;;;;;;21.65;67.51;100460.94;;;;-57
2020/09/01 11:13:27;;;;;;;3.51;2.30;;;;;;;21.65;67.44;100460.36;;;;-57
2020/09/01 11:16:27;;;;;;;3.15;2.02;;;;;;;21.62;67.47;100458.31;;;;-57
2020/09/01 11:19:26;;;;;;;3.31;2.33;;;;;;;21.64;67.44;100454.23;;;;-58
2020/09/01 11:22:26;;;;;;;2.54;2.29;;;;;;;21.63;67.38;100449.19;;;;-57
2020/09/01 11:25:26;;;;;;;3.31;2.13;;;;;;;21.63;67.42;100446.25;;;;-57
2020/09/01 11:28:26;;;;;;;2.56;2.33;;;;;;;21.63;67.37;100448.70;;;;-57
2020/09/01 11:31:27;;;;;;;2.49;2.20;;;;;;;21.61;67.39;100445.03;;;;-57
2020/09/01 11:34:26;;;;;;;3.59;2.25;;;;;;;21.62;67.28;100441.92;;;;-58
2020/09/01 11:37:26;;;;;;;2.55;2.13;;;;;;;21.61;67.33;100437.28;;;;-58
2020/09/01 11:40:27;;;;;;;2.61;2.19;;;;;;;21.60;67.31;100440.62;;;;-59
2020/09/01 11:43:26;;;;;;;3.26;2.25;;;;;;;21.60;67.26;100437.20;;;;-59
2020/09/01 11:46:26;;;;;;;2.59;2.00;;;;;;;21.59;67.31;100438.27;;;;-56
2020/09/01 11:49:26;;;;;;;4.84;2.25;;;;;;;21.61;67.34;100434.20;;;;-52
2020/09/01 11:52:26;;;;;;;4.71;2.16;;;;;;;21.64;67.27;100431.80;;;;-52
2020/09/01 11:55:26;;;;;;;5.03;2.23;;;;;;;21.65;67.35;100432.72;;;;-53
2020/09/01 11:58:26;;;;;;;5.73;2.30;;;;;;;21.68;67.31;100430.24;;;;-51
2020/09/01 12:01:26;;;;;;;6.53;2.48;;;;;;;21.68;67.39;100425.02;;;;-51
2020/09/01 12:04:27;;;;;;;5.64;2.23;;;;;;;21.68;67.56;100425.91;;;;-50
2020/09/01 12:07:26;;;;;;;6.49;2.27;;;;;;;21.67;67.46;100423.48;;;;-57
2020/09/01 12:10:27;;;;;;;5.39;2.37;;;;;;;21.65;67.52;100424.30;;;;-56
2020/09/01 12:13:27;;;;;;;6.16;2.31;;;;;;;21.65;67.48;100418.28;;;;-56
2020/09/01 12:16:27;;;;;;;5.68;2.29;;;;;;;21.64;67.46;100418.34;;;;-56
2020/09/01 12:19:27;;;;;;;4.93;2.31;;;;;;;21.63;67.52;100417.70;;;;-57
2020/09/01 12:22:26;;;;;;;4.30;2.35;;;;;;;21.61;67.49;100412.24;;;;-57
2020/09/01 12:25:26;;;;;;;4.31;2.31;;;;;;;21.60;67.47;100410.77;;;;-52
2020/09/01 12:28:27;;;;;;;6.23;2.19;;;;;;;21.59;67.43;100409.31;;;;-52
2020/09/01 12:31:27;;;;;;;4.37;2.37;;;;;;;21.58;67.48;100405.91;;;;-52
2020/09/01 12:34:27;;;;;;;4.52;2.21;;;;;;;21.58;67.43;100408.50;;;;-52
2020/09/01 12:37:27;;;;;;;5.45;2.14;;;;;;;21.57;67.40;100406.63;;;;-52
2020/09/01 12:40:27;;;;;;;3.75;2.19;;;;;;;21.56;67.49;100406.16;;;;-53
2020/09/01 12:43:27;;;;;;;3.61;2.17;;;;;;;21.56;67.36;100406.13;;;;-53
2020/09/01 12:46:27;;;;;;;5.35;2.53;;;;;;;21.56;67.37;100405.89;;;;-52
2020/09/01 12:49:27;;;;;;;3.83;2.35;;;;;;;21.55;67.47;100402.23;;;;-52
2020/09/01 12:52:27;;;;;;;3.37;2.27;;;;;;;21.55;67.48;100403.22;;;;-52
2020/09/01 12:55:27;;;;;;;2.60;2.06;;;;;;;21.54;67.41;100400.86;;;;-53
2020/09/01 12:58:27;;;;;;;2.55;2.11;;;;;;;21.54;67.38;100399.29;;;;-52
2020/09/01 13:01:27;;;;;;;2.79;2.09;;;;;;;21.54;67.40;100397.33;;;;-53
2020/09/01 13:04:26;;;;;;;2.59;2.19;;;;;;;21.52;67.43;100401.92;;;;-52
2020/09/01 13:07:27;;;;;;;5.29;2.38;;;;;;;21.54;67.38;100398.63;;;;-57
2020/09/01 13:10:27;;;;;;;4.34;2.33;;;;;;;21.55;67.47;100395.22;;;;-46
2020/09/01 13:13:27;;;;;;;2.96;2.02;;;;;;;21.56;67.58;100393.43;;;;-47
2020/09/01 13:16:27;;;;;;;5.19;2.18;;;;;;;21.57;67.62;100393.02;;;;-46
2020/09/01 13:19:27;;;;;;;2.83;2.21;;;;;;;21.58;67.71;100390.66;;;;-49
2020/09/01 13:22:26;;;;;;;5.05;2.29;;;;;;;21.61;67.66;100389.82;;;;-48
2020/09/01 13:25:27;;;;;;;4.51;2.20;;;;;;;21.62;67.71;100388.77;;;;-48
2020/09/01 13:28:27;;;;;;;4.17;2.22;;;;;;;21.63;67.65;100381.08;;;;-55
2020/09/01 13:31:27;;;;;;;4.51;2.13;;;;;;;21.66;67.71;100379.75;;;;-61
2020/09/01 13:34:27;;;;;;;3.83;2.02;;;;;;;21.67;67.77;100376.19;;;;-60
2020/09/01 13:37:27;;;;;;;2.58;2.04;;;;;;;21.69;67.67;100366.64;;;;-55
2020/09/01 13:40:27;;;;;;;4.97;2.14;;;;;;;21.69;67.78;100366.37;;;;-53
2020/09/01 13:43:27;;;;;;;3.65;2.05;;;;;;;21.70;67.70;100361.14;;;;-54
2020/09/01 13:46:27;;;;;;;2.39;2.13;;;;;;;21.73;67.80;100361.80;;;;-54
2020/09/01 13:49:26;;;;;;;4.24;2.25;;;;;;;21.73;67.96;100355.52;;;;-59
2020/09/01 13:52:27;;;;;;;2.97;2.06;;;;;;;21.74;67.99;100351.59;;;;-53
2020/09/01 13:55:27;;;;;;;3.28;2.03;;;;;;;21.75;68.10;100349.39;;;;-54
2020/09/01 13:58:28;;;;;;;4.36;2.22;;;;;;;21.77;68.07;100352.25;;;;-57
2020/09/01 14:01:27;;;;;;;3.88;2.06;;;;;;;21.78;68.09;100349.61;;;;-55
2020/09/01 14:04:26;;;;;;;3.10;2.07;;;;;;;21.78;67.97;100346.27;;;;-54
2020/09/01 14:07:27;;;;;;;3.30;2.01;;;;;;;21.78;68.06;100348.06;;;;-49
2020/09/01 14:10:27;;;;;;;4.41;1.99;;;;;;;21.79;68.05;100345.78;;;;-54
2020/09/01 14:13:27;;;;;;;3.45;2.00;;;;;;;21.80;68.05;100344.70;;;;-48
2020/09/01 14:16:27;;;;;;;4.95;2.19;;;;;;;21.81;67.93;100339.72;;;;-57
2020/09/01 14:19:27;;;;;;;4.26;2.00;;;;;;;21.82;68.02;100338.83;;;;-54
2020/09/01 14:22:27;;;;;;;3.25;2.13;;;;;;;21.82;67.94;100339.48;;;;-45
2020/09/01 14:25:26;;;;;;;2.47;2.05;;;;;;;21.83;67.92;100337.44;;;;-49
2020/09/01 14:28:27;;;;;;;3.75;1.89;;;;;;;21.84;67.87;100336.61;;;;-47
2020/09/01 14:31:27;;;;;;;3.40;2.09;;;;;;;21.84;67.81;100339.55;;;;-46
2020/09/01 14:34:27;;;;;;;2.57;1.91;;;;;;;21.85;67.81;100338.64;;;;-45
2020/09/01 14:37:26;;;;;;;3.21;2.07;;;;;;;21.85;67.90;100339.64;;;;-47
2020/09/01 14:40:26;;;;;;;3.65;1.91;;;;;;;21.85;67.83;100339.13;;;;-58
2020/09/01 14:43:27;;;;;;;2.71;2.03;;;;;;;21.84;67.75;100339.70;;;;-57
2020/09/01 14:46:27;;;;;;;2.67;1.89;;;;;;;21.86;67.58;100343.71;;;;-57
2020/09/01 14:49:27;;;;;;;2.91;1.98;;;;;;;21.84;67.56;100342.73;;;;-57
2020/09/01 14:52:27;;;;;;;3.69;2.13;;;;;;;21.84;67.56;100344.20;;;;-57
2020/09/01 14:55:27;;;;;;;2.67;1.95;;;;;;;21.83;67.46;100338.91;;;;-57
2020/09/01 14:58:26;;;;;;;6.95;2.15;;;;;;;21.84;67.54;100342.81;;;;-52
2020/09/01 15:01:26;;;;;;;15.75;2.67;;;;;;;21.84;67.77;100337.59;;;;-45
2020/09/01 15:04:27;;;;;;;10.21;2.41;;;;;;;21.87;67.65;100338.33;;;;-50
2020/09/01 15:07:27;;;;;;;6.10;2.07;;;;;;;21.88;67.50;100337.73;;;;-58
2020/09/01 15:10:27;;;;;;;5.88;2.11;;;;;;;21.88;67.36;100338.14;;;;-47
2020/09/01 15:13:27;;;;;;;6.09;2.03;;;;;;;21.89;67.42;100337.58;;;;-47
2020/09/01 15:16:27;;;;;;;6.05;2.10;;;;;;;21.90;67.42;100336.50;;;;-56
2020/09/01 15:19:27;;;;;;;3.82;1.95;;;;;;;21.89;67.36;100334.15;;;;-57
2020/09/01 15:22:27;;;;;;;3.47;2.00;;;;;;;21.90;67.42;100329.49;;;;-59
2020/09/01 15:25:27;;;;;;;4.71;2.12;;;;;;;21.89;67.46;100332.33;;;;-60
2020/09/01 15:28:26;;;;;;;4.38;1.98;;;;;;;21.91;67.45;100332.25;;;;-60
2020/09/01 15:31:27;;;;;;;6.41;1.95;;;;;;;21.91;67.40;100327.50;;;;-52
2020/09/01 15:34:27;;;;;;;4.39;2.07;;;;;;;21.90;67.39;100325.23;;;;-52
2020/09/01 15:37:27;;;;;;;4.50;2.10;;;;;;;21.92;67.50;100324.34;;;;-53
2020/09/01 15:40:27;;;;;;;3.39;1.95;;;;;;;21.92;67.42;100323.43;;;;-54
2020/09/01 15:43:27;;;;;;;6.98;1.92;;;;;;;21.92;67.45;100325.81;;;;-53
2020/09/01 15:46:27;;;;;;;4.96;1.99;;;;;;;21.94;67.42;100318.30;;;;-57
2020/09/01 15:49:27;;;;;;;3.45;1.83;;;;;;;21.94;67.45;100318.45;;;;-60
2020/09/01 15:52:27;;;;;;;3.74;2.05;;;;;;;21.95;67.41;100317.69;;;;-59
2020/09/01 15:55:27;;;;;;;3.37;2.02;;;;;;;21.96;67.44;100322.52;;;;-57
2020/09/01 15:58:27;;;;;;;5.13;2.04;;;;;;;21.97;67.39;100320.78;;;;-60
2020/09/01 16:01:27;;;;;;;6.07;2.22;;;;;;;21.97;67.33;100325.83;;;;-65
2020/09/01 16:04:27;;;;;;;3.83;1.89;;;;;;;21.99;67.38;100323.96;;;;-59
2020/09/01 16:07:27;;;;;;;3.87;1.89;;;;;;;21.99;67.39;100323.80;;;;-57
2020/09/01 16:10:27;;;;;;;6.68;1.88;;;;;;;21.99;67.38;100319.95;;;;-58
2020/09/01 16:13:27;;;;;;;6.75;1.93;;;;;;;22.00;67.37;100318.42;;;;-53
2020/09/01 16:16:27;;;;;;;5.07;2.00;;;;;;;21.98;67.38;100324.22;;;;-58
2020/09/01 16:19:27;;;;;;;6.37;1.89;;;;;;;21.97;67.46;100329.18;;;;-53
2020/09/01 16:22:27;;;;;;;3.26;1.81;;;;;;;21.97;67.39;100320.05;;;;-54
2020/09/01 16:25:27;;;;;;;3.31;1.70;;;;;;;21.96;67.29;100329.61;;;;-54
2020/09/01 16:28:27;;;;;;;3.17;1.81;;;;;;;21.96;67.28;100328.73;;;;-53
2020/09/01 16:31:27;;;;;;;4.88;1.89;;;;;;;21.94;67.25;100331.52;;;;-54
2020/09/01 16:34:26;;;;;;;4.38;1.86;;;;;;;21.93;67.27;100327.91;;;;-54
2020/09/01 16:37:27;;;;;;;5.77;1.80;;;;;;;21.92;67.29;100329.06;;;;-53
2020/09/01 16:40:27;;;;;;;3.61;1.93;;;;;;;21.90;67.23;100328.09;;;;-53
2020/09/01 16:43:27;;;;;;;2.50;1.87;;;;;;;21.90;67.29;100324.51;;;;-54
2020/09/01 16:46:27;;;;;;;3.89;1.70;;;;;;;21.89;67.22;100326.48;;;;-55
2020/09/01 16:49:27;;;;;;;3.11;1.88;;;;;;;21.88;67.30;100323.78;;;;-54
2020/09/01 16:52:27;;;;;;;3.23;1.70;;;;;;;21.89;67.27;100328.58;;;;-54